world map with IIL marked

IIL - Airport

This information may not be accurate or current and is not valid for navigation or flight planning. No warranty of fitness for any purpose is made or implied.

flag of Iran

Donate via PayPal

Additional information is available on the NEW Great Circle Mapper

Location
City:  Ilam, Ilam, Iran
ICAO / IATA:OICI / IIL

Details
Type:Airport (Aerodrome, Airfield)
Latitude:33°35'12"N (33.586606)
Longitude:46°24'17"E (46.404842)
Datum:WGS 1984
Elevation:4404 ft (1342 m)
Runways:1
Longest:9183 × 148 ft (2799 × 45 m)

Time
Timezone:UTC+3:30 (DST+6:30)
Local Time:

Weather
METAR:OICI  041400Z 02010KT CAVOK 08/M05 Q1024 A3024
TAF:OICI  041100Z 0412/0518 02006KT CAVOK BECMG 0421/0423 08010KT

Related Locations
Nearby:
Farthest:GMR: 11703 mi / 18833 km
Mangareva [Totegegie], Gambier Islands, PF

Find:

   beyond  
but within

Other Information
Maps:
Sources:

  


 


Great Circle Mapper   Great Circle Mapper
Great Circle Mapper FAQ   Great Circle Mapper FAQ
  Karl's Home Page
KLSē   KLSē Home
   GC on Facebook
Airlines of the World   Airlines of the World
Donate via PayPal


Copyright © 2004-2019, Karl L. Swartz. All rights reserved.
All trademarks mentioned herein belong to their respective owners.

Please see credits for attribution and copyright information.

Karl Swartz <karl@kls2.com>
  Powered by FreeBSD
Valid HTML 4.01!
Labeled with ICRA
hCard Microformat
Geo Microformat